Time,TemperatureF,DewpointF,PressureIn,WindDirection,WindDirectionDegrees,WindSpeedMPH,WindSpeedGustMPH,Humidity,HourlyPrecipIn,Conditions,Clouds,dailyrainin,SoftwareType,DateUTC
2013-03-13 00:03:00,37.0,32.0,-100.00,WNW,286,4.0,14.0,82,0.00,,,-99.99,,2013-03-13 04:03:00,
2013-03-13 00:13:00,37.0,32.0,-100.00,WSW,254,3.0,14.0,84,0.00,,,-99.99,,2013-03-13 04:13:00,
2013-03-13 00:23:00,37.0,32.0,-100.00,WSW,240,1.0,14.0,84,0.00,,,-99.99,,2013-03-13 04:23:00,
2013-03-13 00:32:00,36.0,32.0,-100.00,SSW,208,2.0,14.0,85,0.00,,,-99.99,,2013-03-13 04:32:00,
2013-03-13 00:43:00,36.0,32.0,-100.00,South,173,1.0,14.0,85,0.00,,,-99.99,,2013-03-13 04:43:00,
2013-03-13 00:53:00,36.0,32.0,-100.00,SSW,203,1.0,14.0,86,0.00,,,-99.99,,2013-03-13 04:53:00,
2013-03-13 01:02:00,35.0,32.0,-100.00,SW,217,1.0,14.0,88,0.00,,,-99.99,,2013-03-13 05:02:00,
2013-03-13 01:13:00,35.0,32.0,-100.00,SSW,201,0.0,14.0,88,0.00,,,-99.99,,2013-03-13 05:13:00,
2013-03-13 01:22:00,35.0,32.0,-100.00,NW,317,0.0,14.0,89,0.00,,,-99.99,,2013-03-13 05:22:00,
2013-03-13 01:32:00,32.0,30.0,-100.00,WSW,240,1.0,14.0,88,0.00,,,-99.99,,2013-03-13 05:32:00,
2013-03-13 01:42:00,32.0,30.0,-100.00,SSW,200,0.0,14.0,88,0.00,,,-99.99,,2013-03-13 05:42:00,
2013-03-13 01:52:00,32.0,30.0,-100.00,NE,38,1.0,14.0,88,0.00,,,-99.99,,2013-03-13 05:52:00,
2013-03-13 02:02:00,31.0,30.0,-100.00,ESE,120,1.0,14.0,89,0.00,,,-99.99,,2013-03-13 06:02:00,
2013-03-13 02:13:00,32.0,30.0,-100.00,East,93,0.0,14.0,89,0.00,,,-99.99,,2013-03-13 06:13:00,
2013-03-13 02:23:00,32.0,30.0,-100.00,SE,138,1.0,14.0,90,0.00,,,-99.99,,2013-03-13 06:23:00,
2013-03-13 02:32:00,31.0,30.0,-100.00,NNW,336,0.0,14.0,89,0.00,,,-99.99,,2013-03-13 06:32:00,
2013-03-13 02:42:00,31.0,30.0,-100.00,ENE,63,0.0,14.0,90,0.00,,,-99.99,,2013-03-13 06:42:00,
2013-03-13 02:52:00,31.0,30.0,-100.00,West,269,0.0,14.0,90,0.00,,,-99.99,,2013-03-13 06:52:00,
2013-03-13 03:03:00,32.0,30.0,-100.00,South,186,1.0,14.0,90,0.00,,,-99.99,,2013-03-13 07:03:00,
2013-03-13 03:12:00,32.0,30.0,-100.00,NNE,12,0.0,14.0,90,0.00,,,-99.99,,2013-03-13 07:12:00,
2013-03-13 03:23:00,31.0,30.0,-100.00,North,351,0.0,14.0,90,0.00,,,-99.99,,2013-03-13 07:23:00,
2013-03-13 03:33:00,31.0,30.0,-100.00,NNW,330,0.0,14.0,90,0.00,,,-99.99,,2013-03-13 07:33:00,
2013-03-13 03:42:00,32.0,30.0,-100.00,NNE,29,0.0,14.0,91,0.00,,,-99.99,,2013-03-13 07:42:00,
2013-03-13 03:52:00,32.0,30.0,-100.00,NNW,345,0.0,14.0,90,0.00,,,-99.99,,2013-03-13 07:52:00,
2013-03-13 04:03:00,32.0,30.0,-100.00,WSW,248,1.0,1.0,91,0.00,,,-99.99,,2013-03-13 08:03:00,
2013-03-13 04:12:00,35.0,32.0,-100.00,WSW,241,2.0,2.0,91,0.00,,,-99.99,,2013-03-13 08:12:00,
2013-03-13 04:23:00,32.0,30.0,-100.00,SW,230,3.0,6.0,90,0.00,,,-99.99,,2013-03-13 08:23:00,
2013-03-13 04:32:00,32.0,30.0,-100.00,WNW,297,4.0,6.0,90,9.06,,,-99.99,,2013-03-13 08:32:00,
2013-03-13 04:43:00,32.0,30.0,-100.00,WNW,285,4.0,6.0,91,0.00,,,-99.99,,2013-03-13 08:43:00,
2013-03-13 04:53:00,32.0,30.0,-100.00,West,262,2.0,6.0,91,0.00,,,-99.99,,2013-03-13 08:53:00,
2013-03-13 05:02:00,32.0,30.0,-100.00,West,268,3.0,6.0,91,0.00,,,-99.99,,2013-03-13 09:02:00,
2013-03-13 05:13:00,32.0,30.0,-100.00,WNW,289,2.0,6.0,91,0.00,,,-99.99,,2013-03-13 09:13:00,
2013-03-13 05:23:00,32.0,30.0,-100.00,WSW,256,2.0,6.0,91,0.00,,,-99.99,,2013-03-13 09:23:00,
2013-03-13 05:32:00,32.0,30.0,-100.00,WNW,295,2.0,6.0,90,0.00,,,-99.99,,2013-03-13 09:32:00,
2013-03-13 05:42:00,33.0,32.0,-100.00,WNW,303,2.0,6.0,90,0.00,,,-99.99,,2013-03-13 09:42:00,
2013-03-13 05:52:00,34.0,32.0,-100.00,WSW,238,2.0,6.0,90,0.00,,,-99.99,,2013-03-13 09:52:00,
2013-03-13 06:02:00,34.0,32.0,-100.00,West,273,2.0,6.0,90,0.00,,,-99.99,,2013-03-13 10:02:00,
2013-03-13 06:12:00,34.0,32.0,-100.00,WNW,302,3.0,6.0,90,0.00,,,-99.99,,2013-03-13 10:12:00,
2013-03-13 06:22:00,32.0,30.0,-100.00,NW,317,2.0,6.0,89,0.00,,,-99.99,,2013-03-13 10:22:00,
2013-03-13 06:32:00,34.0,32.0,-100.00,West,264,2.0,6.0,89,0.00,,,-99.99,,2013-03-13 10:32:00,
2013-03-13 06:42:00,34.0,32.0,-100.00,WSW,238,4.0,6.0,88,0.00,,,-99.99,,2013-03-13 10:42:00,
2013-03-13 06:52:00,34.0,32.0,-100.00,NW,316,3.0,6.0,86,0.00,,,-99.99,,2013-03-13 10:52:00,
2013-03-13 07:02:00,34.0,32.0,-100.00,WSW,249,3.0,6.0,85,0.00,,,-99.99,,2013-03-13 11:02:00,
2013-03-13 07:12:00,32.0,28.0,-100.00,WNW,293,3.0,6.0,84,0.00,,,-99.99,,2013-03-13 11:12:00,
2013-03-13 07:22:00,32.0,28.0,-100.00,WNW,300,4.0,6.0,81,0.00,,,-99.99,,2013-03-13 11:22:00,
2013-03-13 07:32:00,32.0,28.0,-100.00,WNW,297,5.0,6.0,80,0.00,,,-99.99,,2013-03-13 11:32:00,
2013-03-13 07:42:00,32.0,28.0,-100.00,WNW,290,4.0,6.0,80,0.00,,,-99.99,,2013-03-13 11:42:00,
2013-03-13 07:52:00,32.0,27.0,-100.00,West,276,4.0,6.0,78,0.00,,,-99.99,,2013-03-13 11:52:00,
2013-03-13 08:02:00,32.0,27.0,-100.00,WSW,237,2.0,6.0,78,0.00,,,-99.99,,2013-03-13 12:02:00,
2013-03-13 08:12:00,32.0,27.0,-100.00,West,259,4.0,6.0,78,0.00,,,-99.99,,2013-03-13 12:12:00,
2013-03-13 08:22:00,32.0,27.0,-100.00,SW,231,4.0,6.0,78,0.00,,,-99.99,,2013-03-13 12:22:00,
2013-03-13 08:32:00,32.0,27.0,-100.00,West,262,4.0,6.0,78,0.00,,,-99.99,,2013-03-13 12:32:00,
2013-03-13 08:42:00,32.0,28.0,-100.00,WNW,283,3.0,6.0,80,0.00,,,-99.99,,2013-03-13 12:42:00,
2013-03-13 08:52:00,32.0,28.0,-100.00,WSW,252,3.0,6.0,80,0.00,,,-99.99,,2013-03-13 12:52:00,
2013-03-13 09:02:00,32.0,27.0,-100.00,West,275,4.0,6.0,80,0.00,,,-99.99,,2013-03-13 13:02:00,
2013-03-13 09:12:00,32.0,28.0,-100.00,NW,307,3.0,6.0,80,0.00,,,-99.99,,2013-03-13 13:12:00,
2013-03-13 09:22:00,35.0,30.0,-100.00,WNW,297,4.0,6.0,81,0.00,,,-99.99,,2013-03-13 13:22:00,
2013-03-13 09:33:00,36.0,30.0,-100.00,West,278,5.0,6.0,80,0.00,,,-99.99,,2013-03-13 13:33:00,
2013-03-13 09:43:00,35.0,30.0,-100.00,West,266,4.0,6.0,78,0.00,,,-99.99,,2013-03-13 13:43:00,
2013-03-13 09:52:00,35.0,28.0,-100.00,WNW,289,6.0,8.0,77,0.00,,,-99.99,,2013-03-13 13:52:00,
2013-03-13 10:02:00,34.0,28.0,-100.00,WNW,303,7.0,15.0,77,0.00,,,-99.99,,2013-03-13 14:02:00,
2013-03-13 10:12:00,32.0,28.0,-100.00,NNW,344,11.0,15.0,82,4.53,,,-99.99,,2013-03-13 14:12:00,
2013-03-13 10:22:00,32.0,28.0,-100.00,West,280,9.0,15.0,82,1.14,,,-99.99,,2013-03-13 14:22:00,
2013-03-13 10:33:00,33.0,30.0,-100.00,NW,307,6.0,15.0,84,1.14,,,-99.99,,2013-03-13 14:33:00,
2013-03-13 10:42:00,31.0,27.0,-100.00,NW,313,5.0,15.0,81,0.00,,,-99.99,,2013-03-13 14:42:00,
2013-03-13 10:52:00,31.0,27.0,-100.00,NNW,327,5.0,15.0,80,0.00,,,-99.99,,2013-03-13 14:52:00,
2013-03-13 11:03:00,35.0,30.0,-100.00,WNW,293,6.0,15.0,77,0.00,,,-99.99,,2013-03-13 15:03:00,
2013-03-13 11:12:00,32.0,25.0,-100.00,NW,313,7.0,15.0,73,0.00,,,-99.99,,2013-03-13 15:12:00,
2013-03-13 11:22:00,32.0,25.0,-100.00,WNW,302,8.0,15.0,72,0.00,,,-99.99,,2013-03-13 15:22:00,
2013-03-13 11:32:00,35.0,28.0,-100.00,WNW,296,8.0,15.0,72,0.00,,,-99.99,,2013-03-13 15:32:00,
2013-03-13 11:43:00,35.0,28.0,-100.00,NW,312,7.0,15.0,73,0.00,,,-99.99,,2013-03-13 15:43:00,
2013-03-13 11:52:00,33.0,27.0,-100.00,NW,306,10.0,15.0,77,28.35,,,-99.99,,2013-03-13 15:52:00,
2013-03-13 12:03:00,32.0,28.0,-100.00,NW,309,7.0,15.0,81,10.79,,,-99.99,,2013-03-13 16:03:00,
2013-03-13 12:12:00,32.0,28.0,-100.00,NW,326,5.0,15.0,84,0.00,,,-99.99,,2013-03-13 16:12:00,
2013-03-13 12:22:00,33.0,28.0,-100.00,WSW,249,5.0,15.0,81,0.00,,,-99.99,,2013-03-13 16:22:00,
2013-03-13 12:32:00,34.0,28.0,-100.00,WNW,299,6.0,15.0,77,0.00,,,-99.99,,2013-03-13 16:32:00,
2013-03-13 12:42:00,32.0,25.0,-100.00,North,355,7.0,15.0,71,0.00,,,-99.99,,2013-03-13 16:42:00,
2013-03-13 12:52:00,32.0,23.0,-100.00,WSW,255,11.0,15.0,67,0.00,,,-99.99,,2013-03-13 16:52:00,
2013-03-13 13:03:00,32.0,23.0,-100.00,WNW,289,8.0,15.0,68,0.00,,,-99.99,,2013-03-13 17:03:00,
2013-03-13 13:12:00,31.0,25.0,-100.00,West,265,9.0,15.0,76,10.79,,,-99.99,,2013-03-13 17:12:00,
2013-03-13 13:23:00,32.0,27.0,-100.00,West,279,9.0,15.0,75,2.83,,,-99.99,,2013-03-13 17:23:00,
2013-03-13 13:33:00,32.0,27.0,-100.00,WNW,282,8.0,15.0,75,0.00,,,-99.99,,2013-03-13 17:33:00,
2013-03-13 13:42:00,35.0,27.0,-100.00,WSW,244,9.0,15.0,68,0.00,,,-99.99,,2013-03-13 17:42:00,
2013-03-13 13:53:00,32.0,23.0,-100.00,West,268,11.0,15.0,68,0.00,,,-99.99,,2013-03-13 17:53:00,
2013-03-13 14:02:00,29.0,23.0,-100.00,NW,304,13.0,15.0,76,4.53,,,-99.99,,2013-03-13 18:02:00,
2013-03-13 14:13:00,28.0,25.0,-100.00,NW,314,12.0,19.0,82,10.79,,,-99.99,,2013-03-13 18:13:00,
2013-03-13 14:22:00,29.0,25.0,-100.00,NW,309,10.0,19.0,85,9.06,,,-99.99,,2013-03-13 18:22:00,
2013-03-13 14:33:00,30.0,27.0,-100.00,WNW,297,8.0,19.0,85,0.00,,,-99.99,,2013-03-13 18:33:00,
2013-03-13 14:42:00,31.0,28.0,-100.00,NW,312,5.0,19.0,84,0.00,,,-99.99,,2013-03-13 18:42:00,
2013-03-13 14:52:00,32.0,28.0,-100.00,NNW,333,6.0,19.0,81,4.53,,,-99.99,,2013-03-13 18:52:00,
2013-03-13 15:03:00,31.0,25.0,-100.00,NW,317,10.0,19.0,76,0.00,,,-99.99,,2013-03-13 19:03:00,
2013-03-13 15:12:00,32.0,25.0,-100.00,West,273,9.0,19.0,72,0.00,,,-99.99,,2013-03-13 19:12:00,
2013-03-13 15:22:00,32.0,23.0,-100.00,NNW,338,12.0,19.0,64,0.00,,,-99.99,,2013-03-13 19:22:00,
2013-03-13 15:32:00,33.0,21.0,-100.00,NNW,330,11.0,19.0,62,0.00,,,-99.99,,2013-03-13 19:32:00,
2013-03-13 15:43:00,32.0,21.0,-100.00,WNW,285,14.0,19.0,60,0.00,,,-99.99,,2013-03-13 19:43:00,
2013-03-13 15:52:00,32.0,19.0,-100.00,NW,312,14.0,19.0,58,0.00,,,-99.99,,2013-03-13 19:52:00,
2013-03-13 16:02:00,32.0,21.0,-100.00,WNW,302,13.0,19.0,60,0.00,,,-99.99,,2013-03-13 20:02:00,
2013-03-13 16:12:00,31.0,21.0,-100.00,NW,309,12.0,19.0,64,0.00,,,-99.99,,2013-03-13 20:12:00,
2013-03-13 16:22:00,31.0,19.0,-100.00,NW,321,14.0,19.0,60,0.00,,,-99.99,,2013-03-13 20:22:00,
2013-03-13 16:32:00,31.0,21.0,-100.00,WNW,285,12.0,19.0,62,0.00,,,-99.99,,2013-03-13 20:32:00,
2013-03-13 16:42:00,31.0,19.0,-100.00,WNW,286,12.0,19.0,60,0.00,,,-99.99,,2013-03-13 20:42:00,
2013-03-13 16:52:00,31.0,21.0,-100.00,NW,317,10.0,19.0,64,2.83,,,-99.99,,2013-03-13 20:52:00,
2013-03-13 17:02:00,31.0,23.0,-100.00,North,360,8.0,19.0,67,0.00,,,-99.99,,2013-03-13 21:02:00,
2013-03-13 17:12:00,30.0,23.0,-100.00,WNW,302,12.0,19.0,71,0.00,,,-99.99,,2013-03-13 21:12:00,
2013-03-13 17:22:00,31.0,21.0,-100.00,WNW,302,10.0,19.0,64,0.00,,,-99.99,,2013-03-13 21:22:00,
2013-03-13 17:33:00,31.0,21.0,-100.00,WNW,303,11.0,19.0,64,0.00,,,-99.99,,2013-03-13 21:33:00,
2013-03-13 17:42:00,31.0,21.0,-100.00,NW,312,11.0,19.0,66,0.00,,,-99.99,,2013-03-13 21:42:00,
2013-03-13 17:52:00,30.0,23.0,-100.00,NW,306,11.0,19.0,71,2.83,,,-99.99,,2013-03-13 21:52:00,
2013-03-13 18:02:00,31.0,23.0,-100.00,NW,324,9.0,19.0,69,0.00,,,-99.99,,2013-03-13 22:02:00,
2013-03-13 18:12:00,33.0,25.0,-100.00,NNW,328,8.0,19.0,67,0.00,,,-99.99,,2013-03-13 22:12:00,
2013-03-13 18:22:00,32.0,23.0,-100.00,NW,326,10.0,19.0,68,0.00,,,-99.99,,2013-03-13 22:22:00,
2013-03-13 18:32:00,33.0,25.0,-100.00,WNW,288,11.0,19.0,69,0.00,,,-99.99,,2013-03-13 22:32:00,
2013-03-13 18:42:00,33.0,25.0,-100.00,WNW,282,9.0,19.0,68,0.00,,,-99.99,,2013-03-13 22:42:00,
2013-03-13 18:52:00,33.0,25.0,-100.00,WNW,295,9.0,19.0,68,0.00,,,-99.99,,2013-03-13 22:52:00,
2013-03-13 19:02:00,33.0,25.0,-100.00,NW,310,9.0,19.0,68,0.00,,,-99.99,,2013-03-13 23:02:00,
2013-03-13 19:12:00,33.0,25.0,-100.00,NW,316,6.0,19.0,72,0.00,,,-99.99,,2013-03-13 23:12:00,
2013-03-13 19:22:00,31.0,25.0,-100.00,NW,307,9.0,19.0,73,2.83,,,-99.99,,2013-03-13 23:22:00,
2013-03-13 19:32:00,31.0,25.0,-100.00,NW,321,9.0,19.0,76,0.00,,,-99.99,,2013-03-13 23:32:00,
2013-03-13 19:42:00,32.0,25.0,-100.00,WNW,303,10.0,19.0,73,0.00,,,-99.99,,2013-03-13 23:42:00,
2013-03-13 19:52:00,31.0,25.0,-100.00,WNW,286,9.0,19.0,71,0.00,,,-99.99,,2013-03-13 23:52:00,
2013-03-13 20:02:00,32.0,23.0,-100.00,West,279,12.0,19.0,69,0.00,,,-99.99,,2013-03-14 00:02:00,
2013-03-13 20:13:00,32.0,25.0,-100.00,West,273,7.0,19.0,71,0.00,,,-99.99,,2013-03-14 00:13:00,
2013-03-13 20:22:00,32.0,25.0,-100.00,West,268,9.0,19.0,71,0.00,,,-99.99,,2013-03-14 00:22:00,
2013-03-13 20:32:00,31.0,23.0,-100.00,NW,309,10.0,19.0,68,0.00,,,-99.99,,2013-03-14 00:32:00,
2013-03-13 20:42:00,31.0,25.0,-100.00,NW,307,7.0,19.0,76,0.00,,,-99.99,,2013-03-14 00:42:00,
2013-03-13 20:52:00,31.0,25.0,-100.00,WNW,285,6.0,19.0,77,0.00,,,-99.99,,2013-03-14 00:52:00,
2013-03-13 21:02:00,31.0,27.0,-100.00,WNW,293,6.0,19.0,78,0.00,,,-99.99,,2013-03-14 01:02:00,
2013-03-13 21:12:00,31.0,25.0,-100.00,WNW,283,6.0,19.0,78,0.00,,,-99.99,,2013-03-14 01:12:00,
2013-03-13 21:23:00,32.0,27.0,-100.00,NW,307,9.0,19.0,78,0.00,,,-99.99,,2013-03-14 01:23:00,
2013-03-13 21:32:00,30.0,25.0,-100.00,NW,314,7.0,19.0,78,0.00,,,-99.99,,2013-03-14 01:32:00,
2013-03-13 21:42:00,31.0,25.0,-100.00,WNW,285,7.0,19.0,77,0.00,,,-99.99,,2013-03-14 01:42:00,
2013-03-13 21:52:00,30.0,25.0,-100.00,West,276,9.0,19.0,77,0.00,,,-99.99,,2013-03-14 01:52:00,
2013-03-13 22:02:00,31.0,27.0,-100.00,WNW,285,9.0,19.0,78,2.83,,,-99.99,,2013-03-14 02:02:00,
2013-03-13 22:12:00,31.0,25.0,-100.00,NW,307,9.0,19.0,78,0.00,,,-99.99,,2013-03-14 02:12:00,
2013-03-13 22:22:00,30.0,25.0,-100.00,WNW,295,8.0,19.0,78,0.00,,,-99.99,,2013-03-14 02:22:00,
2013-03-13 22:32:00,30.0,25.0,-100.00,WNW,299,7.0,19.0,78,0.00,,,-99.99,,2013-03-14 02:32:00,
2013-03-13 22:42:00,30.0,25.0,-100.00,WNW,299,7.0,19.0,78,0.00,,,-99.99,,2013-03-14 02:42:00,
2013-03-13 22:51:00,30.0,25.0,-100.00,WNW,299,7.0,19.0,78,0.00,,,-99.99,,2013-03-14 02:51:00,
2013-03-13 23:02:00,30.0,25.0,-100.00,NW,314,8.0,19.0,77,0.00,,,-99.99,,2013-03-14 03:02:00,
2013-03-13 23:12:00,30.0,25.0,-100.00,WNW,288,7.0,19.0,78,0.00,,,-99.99,,2013-03-14 03:12:00,
2013-03-13 23:23:00,30.0,25.0,-100.00,WNW,293,8.0,19.0,78,0.00,,,-99.99,,2013-03-14 03:23:00,
2013-03-13 23:32:00,30.0,25.0,-100.00,West,269,9.0,19.0,77,0.00,,,-99.99,,2013-03-14 03:32:00,
2013-03-13 23:42:00,31.0,27.0,-100.00,West,278,8.0,19.0,78,0.00,,,-99.99,,2013-03-14 03:42:00,
2013-03-13 23:52:00,31.0,27.0,-100.00,NW,312,6.0,19.0,78,0.00,,,-99.99,,2013-03-14 03:52:00,